sensor_id;sensor_type;location;lat;lon;timestamp;temperature;humidity
67899;DHT22;54699;51.796;10.956;2024-02-28T00:02:26;17.50;51.20
67899;DHT22;54699;51.796;10.956;2024-02-28T00:04:53;17.50;51.30
67899;DHT22;54699;51.796;10.956;2024-02-28T00:07:21;17.50;51.30
67899;DHT22;54699;51.796;10.956;2024-02-28T00:09:48;17.50;51.20
67899;DHT22;54699;51.796;10.956;2024-02-28T00:12:15;17.50;51.30
67899;DHT22;54699;51.796;10.956;2024-02-28T00:14:42;17.50;51.20
67899;DHT22;54699;51.796;10.956;2024-02-28T00:17:08;17.50;51.30
67899;DHT22;54699;51.796;10.956;2024-02-28T00:19:35;17.50;51.20
67899;DHT22;54699;51.796;10.956;2024-02-28T00:22:02;17.50;51.30
67899;DHT22;54699;51.796;10.956;2024-02-28T00:24:30;17.50;51.20
67899;DHT22;54699;51.796;10.956;2024-02-28T00:26:57;17.50;51.20
67899;DHT22;54699;51.796;10.956;2024-02-28T00:29:24;17.50;51.30
67899;DHT22;54699;51.796;10.956;2024-02-28T00:31:51;17.40;51.20
67899;DHT22;54699;51.796;10.956;2024-02-28T00:34:20;17.50;51.30
67899;DHT22;54699;51.796;10.956;2024-02-28T00:36:47;17.40;51.20
67899;DHT22;54699;51.796;10.956;2024-02-28T00:39:14;17.40;51.20
67899;DHT22;54699;51.796;10.956;2024-02-28T00:41:42;17.40;51.20
67899;DHT22;54699;51.796;10.956;2024-02-28T00:44:09;17.50;51.30
67899;DHT22;54699;51.796;10.956;2024-02-28T00:46:36;17.40;51.30
67899;DHT22;54699;51.796;10.956;2024-02-28T00:49:03;17.40;51.20
67899;DHT22;54699;51.796;10.956;2024-02-28T00:51:30;17.40;51.20
67899;DHT22;54699;51.796;10.956;2024-02-28T00:53:56;17.40;51.30
67899;DHT22;54699;51.796;10.956;2024-02-28T00:56:23;17.40;51.30
67899;DHT22;54699;51.796;10.956;2024-02-28T00:58:53;17.40;51.20
67899;DHT22;54699;51.796;10.956;2024-02-28T01:01:20;17.40;51.20
67899;DHT22;54699;51.796;10.956;2024-02-28T01:03:47;17.40;51.30
67899;DHT22;54699;51.796;10.956;2024-02-28T01:06:14;17.40;51.30
67899;DHT22;54699;51.796;10.956;2024-02-28T01:08:41;17.40;51.20
67899;DHT22;54699;51.796;10.956;2024-02-28T01:11:08;17.40;51.20
67899;DHT22;54699;51.796;10.956;2024-02-28T01:13:36;17.40;51.30
67899;DHT22;54699;51.796;10.956;2024-02-28T01:16:04;17.40;51.20
67899;DHT22;54699;51.796;10.956;2024-02-28T01:18:32;17.40;51.20
67899;DHT22;54699;51.796;10.956;2024-02-28T01:20:58;17.40;51.20
67899;DHT22;54699;51.796;10.956;2024-02-28T01:23:25;17.40;51.30
67899;DHT22;54699;51.796;10.956;2024-02-28T01:25:52;17.40;51.30
67899;DHT22;54699;51.796;10.956;2024-02-28T01:28:19;17.40;51.30
67899;DHT22;54699;51.796;10.956;2024-02-28T01:30:46;17.40;51.20
67899;DHT22;54699;51.796;10.956;2024-02-28T01:33:15;17.40;51.30
67899;DHT22;54699;51.796;10.956;2024-02-28T01:35:42;17.40;51.20
67899;DHT22;54699;51.796;10.956;2024-02-28T01:38:09;17.40;51.20
67899;DHT22;54699;51.796;10.956;2024-02-28T01:40:36;17.40;51.20
67899;DHT22;54699;51.796;10.956;2024-02-28T01:43:03;17.40;52.20
67899;DHT22;54699;51.796;10.956;2024-02-28T01:45:30;17.40;51.20
67899;DHT22;54699;51.796;10.956;2024-02-28T01:47:57;17.40;51.30
67899;DHT22;54699;51.796;10.956;2024-02-28T01:50:25;17.40;51.30
67899;DHT22;54699;51.796;10.956;2024-02-28T01:52:52;17.40;51.30
67899;DHT22;54699;51.796;10.956;2024-02-28T01:55:19;17.40;51.20
67899;DHT22;54699;51.796;10.956;2024-02-28T01:57:46;17.40;51.30
67899;DHT22;54699;51.796;10.956;2024-02-28T02:00:13;17.40;52.20
67899;DHT22;54699;51.796;10.956;2024-02-28T02:02:41;17.40;51.30
67899;DHT22;54699;51.796;10.956;2024-02-28T02:05:09;17.30;51.30
67899;DHT22;54699;51.796;10.956;2024-02-28T02:07:38;17.30;51.30
67899;DHT22;54699;51.796;10.956;2024-02-28T02:10:05;17.30;51.30
67899;DHT22;54699;51.796;10.956;2024-02-28T02:12:34;17.30;51.30
67899;DHT22;54699;51.796;10.956;2024-02-28T02:15:02;17.30;51.30
67899;DHT22;54699;51.796;10.956;2024-02-28T02:17:30;17.30;51.30
67899;DHT22;54699;51.796;10.956;2024-02-28T02:19:56;17.30;51.20
67899;DHT22;54699;51.796;10.956;2024-02-28T02:22:24;17.30;51.20
67899;DHT22;54699;51.796;10.956;2024-02-28T02:24:56;17.30;51.30
67899;DHT22;54699;51.796;10.956;2024-02-28T02:27:23;17.30;51.30
67899;DHT22;54699;51.796;10.956;2024-02-28T02:29:51;17.30;51.20
67899;DHT22;54699;51.796;10.956;2024-02-28T02:32:18;17.30;51.20
67899;DHT22;54699;51.796;10.956;2024-02-28T02:34:44;17.30;51.30
67899;DHT22;54699;51.796;10.956;2024-02-28T02:37:12;17.30;51.30
67899;DHT22;54699;51.796;10.956;2024-02-28T02:39:38;17.30;51.30
67899;DHT22;54699;51.796;10.956;2024-02-28T02:42:10;17.30;51.30
67899;DHT22;54699;51.796;10.956;2024-02-28T02:44:38;17.30;51.20
67899;DHT22;54699;51.796;10.956;2024-02-28T02:47:05;17.30;51.30
67899;DHT22;54699;51.796;10.956;2024-02-28T02:49:32;17.20;51.20
67899;DHT22;54699;51.796;10.956;2024-02-28T02:51:59;17.30;51.30
67899;DHT22;54699;51.796;10.956;2024-02-28T02:54:26;17.20;51.20
67899;DHT22;54699;51.796;10.956;2024-02-28T02:56:53;17.30;51.30
67899;DHT22;54699;51.796;10.956;2024-02-28T02:59:21;17.20;51.20
67899;DHT22;54699;51.796;10.956;2024-02-28T03:01:48;17.30;51.30
67899;DHT22;54699;51.796;10.956;2024-02-28T03:04:16;17.20;51.20
67899;DHT22;54699;51.796;10.956;2024-02-28T03:06:43;17.20;51.30
67899;DHT22;54699;51.796;10.956;2024-02-28T03:09:10;17.20;51.20
67899;DHT22;54699;51.796;10.956;2024-02-28T03:11:36;17.20;51.20
67899;DHT22;54699;51.796;10.956;2024-02-28T03:14:03;17.20;51.20
67899;DHT22;54699;51.796;10.956;2024-02-28T03:16:33;17.30;51.30
67899;DHT22;54699;51.796;10.956;2024-02-28T03:19:02;17.20;51.20
67899;DHT22;54699;51.796;10.956;2024-02-28T03:21:30;17.30;51.30
67899;DHT22;54699;51.796;10.956;2024-02-28T03:23:57;17.20;51.20
67899;DHT22;54699;51.796;10.956;2024-02-28T03:26:24;17.30;51.30
67899;DHT22;54699;51.796;10.956;2024-02-28T03:28:51;17.20;51.30
67899;DHT22;54699;51.796;10.956;2024-02-28T03:31:18;17.30;51.30
67899;DHT22;54699;51.796;10.956;2024-02-28T03:33:46;17.20;51.20
67899;DHT22;54699;51.796;10.956;2024-02-28T03:36:13;17.20;51.30
67899;DHT22;54699;51.796;10.956;2024-02-28T03:38:39;17.20;51.20
67899;DHT22;54699;51.796;10.956;2024-02-28T03:41:06;17.20;51.30
67899;DHT22;54699;51.796;10.956;2024-02-28T03:43:33;17.30;51.20
67899;DHT22;54699;51.796;10.956;2024-02-28T03:46:00;17.20;51.20
67899;DHT22;54699;51.796;10.956;2024-02-28T03:48:27;17.20;51.20
67899;DHT22;54699;51.796;10.956;2024-02-28T03:50:55;17.20;51.20
67899;DHT22;54699;51.796;10.956;2024-02-28T03:53:22;17.20;51.20
67899;DHT22;54699;51.796;10.956;2024-02-28T03:55:49;17.20;51.30
67899;DHT22;54699;51.796;10.956;2024-02-28T03:58:16;17.20;51.20
67899;DHT22;54699;51.796;10.956;2024-02-28T04:00:43;17.20;51.20
67899;DHT22;54699;51.796;10.956;2024-02-28T04:03:11;17.20;51.20
67899;DHT22;54699;51.796;10.956;2024-02-28T04:05:39;17.20;51.20
67899;DHT22;54699;51.796;10.956;2024-02-28T04:08:07;17.20;51.30
67899;DHT22;54699;51.796;10.956;2024-02-28T04:10:34;17.20;51.30
67899;DHT22;54699;51.796;10.956;2024-02-28T04:13:01;17.20;51.20
67899;DHT22;54699;51.796;10.956;2024-02-28T04:15:30;17.20;51.20
67899;DHT22;54699;51.796;10.956;2024-02-28T04:17:57;17.20;51.30
67899;DHT22;54699;51.796;10.956;2024-02-28T04:20:24;17.20;51.20
67899;DHT22;54699;51.796;10.956;2024-02-28T04:22:51;17.20;51.20
67899;DHT22;54699;51.796;10.956;2024-02-28T04:25:19;17.20;51.20
67899;DHT22;54699;51.796;10.956;2024-02-28T04:27:46;17.10;51.20
67899;DHT22;54699;51.796;10.956;2024-02-28T04:30:13;17.10;51.20
67899;DHT22;54699;51.796;10.956;2024-02-28T04:32:39;17.20;51.20
67899;DHT22;54699;51.796;10.956;2024-02-28T04:35:07;17.10;51.20
67899;DHT22;54699;51.796;10.956;2024-02-28T04:37:34;17.10;51.20
67899;DHT22;54699;51.796;10.956;2024-02-28T04:40:01;17.10;51.20
67899;DHT22;54699;51.796;10.956;2024-02-28T04:42:30;17.10;51.20
67899;DHT22;54699;51.796;10.956;2024-02-28T04:44:56;17.10;51.20
67899;DHT22;54699;51.796;10.956;2024-02-28T04:47:23;17.10;51.20
67899;DHT22;54699;51.796;10.956;2024-02-28T04:49:50;17.10;51.20
67899;DHT22;54699;51.796;10.956;2024-02-28T04:52:17;17.10;51.70
67899;DHT22;54699;51.796;10.956;2024-02-28T04:54:44;17.10;51.20
67899;DHT22;54699;51.796;10.956;2024-02-28T04:57:11;17.10;51.20
67899;DHT22;54699;51.796;10.956;2024-02-28T04:59:39;17.10;51.20
67899;DHT22;54699;51.796;10.956;2024-02-28T05:02:07;17.10;51.20
67899;DHT22;54699;51.796;10.956;2024-02-28T05:04:34;17.10;51.20
67899;DHT22;54699;51.796;10.956;2024-02-28T05:07:01;17.10;51.20
67899;DHT22;54699;51.796;10.956;2024-02-28T05:09:28;17.10;51.30
67899;DHT22;54699;51.796;10.956;2024-02-28T05:11:57;17.10;51.30
67899;DHT22;54699;51.796;10.956;2024-02-28T05:14:24;17.10;51.20
67899;DHT22;54699;51.796;10.956;2024-02-28T05:16:53;17.10;51.20
67899;DHT22;54699;51.796;10.956;2024-02-28T05:19:20;17.10;51.20
67899;DHT22;54699;51.796;10.956;2024-02-28T05:21:47;17.10;51.20
67899;DHT22;54699;51.796;10.956;2024-02-28T05:24:14;17.10;51.20
67899;DHT22;54699;51.796;10.956;2024-02-28T05:26:41;17.10;51.20
67899;DHT22;54699;51.796;10.956;2024-02-28T05:29:08;17.10;51.20
67899;DHT22;54699;51.796;10.956;2024-02-28T05:31:35;17.10;51.10
67899;DHT22;54699;51.796;10.956;2024-02-28T05:34:03;17.10;51.10
67899;DHT22;54699;51.796;10.956;2024-02-28T05:36:30;17.10;51.30
67899;DHT22;54699;51.796;10.956;2024-02-28T05:38:58;17.20;51.30
67899;DHT22;54699;51.796;10.956;2024-02-28T05:41:26;17.30;51.20
67899;DHT22;54699;51.796;10.956;2024-02-28T05:43:54;17.60;50.70
67899;DHT22;54699;51.796;10.956;2024-02-28T05:46:21;18.00;50.00
67899;DHT22;54699;51.796;10.956;2024-02-28T05:48:49;18.30;49.50
67899;DHT22;54699;51.796;10.956;2024-02-28T05:51:17;18.50;48.70
67899;DHT22;54699;51.796;10.956;2024-02-28T05:53:44;18.90;48.00
67899;DHT22;54699;51.796;10.956;2024-02-28T05:56:11;19.10;47.30
67899;DHT22;54699;51.796;10.956;2024-02-28T05:58:40;19.20;46.60
67899;DHT22;54699;51.796;10.956;2024-02-28T06:01:08;19.50;45.60
67899;DHT22;54699;51.796;10.956;2024-02-28T06:03:35;19.70;45.20
67899;DHT22;54699;51.796;10.956;2024-02-28T06:06:03;19.80;44.80
67899;DHT22;54699;51.796;10.956;2024-02-28T06:08:33;20.00;44.60
67899;DHT22;54699;51.796;10.956;2024-02-28T06:11:02;20.10;43.60
67899;DHT22;54699;51.796;10.956;2024-02-28T06:13:29;20.20;43.70
67899;DHT22;54699;51.796;10.956;2024-02-28T06:15:56;20.40;43.30
67899;DHT22;54699;51.796;10.956;2024-02-28T06:18:24;20.50;42.90
67899;DHT22;54699;51.796;10.956;2024-02-28T06:20:53;20.80;42.50
67899;DHT22;54699;51.796;10.956;2024-02-28T06:23:23;21.00;42.10
67899;DHT22;54699;51.796;10.956;2024-02-28T06:25:51;21.00;42.10
67899;DHT22;54699;51.796;10.956;2024-02-28T06:28:18;21.10;41.70
67899;DHT22;54699;51.796;10.956;2024-02-28T06:30:46;21.20;41.50
67899;DHT22;54699;51.796;10.956;2024-02-28T06:33:13;21.10;41.30
67899;DHT22;54699;51.796;10.956;2024-02-28T06:35:40;21.30;41.10
67899;DHT22;54699;51.796;10.956;2024-02-28T06:38:07;21.00;40.50
67899;DHT22;54699;51.796;10.956;2024-02-28T06:40:35;20.80;40.20
67899;DHT22;54699;51.796;10.956;2024-02-28T06:43:03;21.00;39.70
67899;DHT22;54699;51.796;10.956;2024-02-28T06:45:32;21.00;39.40
67899;DHT22;54699;51.796;10.956;2024-02-28T06:48:00;21.00;39.60
67899;DHT22;54699;51.796;10.956;2024-02-28T06:50:28;21.00;38.40
67899;DHT22;54699;51.796;10.956;2024-02-28T06:52:59;21.00;39.10
67899;DHT22;54699;51.796;10.956;2024-02-28T06:55:26;21.20;38.80
67899;DHT22;54699;51.796;10.956;2024-02-28T06:57:54;21.40;39.60
67899;DHT22;54699;51.796;10.956;2024-02-28T07:00:23;21.50;39.90
67899;DHT22;54699;51.796;10.956;2024-02-28T07:02:54;21.30;39.50
67899;DHT22;54699;51.796;10.956;2024-02-28T07:05:21;21.30;39.20
67899;DHT22;54699;51.796;10.956;2024-02-28T07:07:49;21.40;39.10
67899;DHT22;54699;51.796;10.956;2024-02-28T07:10:17;21.40;39.30
67899;DHT22;54699;51.796;10.956;2024-02-28T07:12:44;21.30;39.30
67899;DHT22;54699;51.796;10.956;2024-02-28T07:15:11;21.60;39.10
67899;DHT22;54699;51.796;10.956;2024-02-28T07:17:39;21.60;38.90
67899;DHT22;54699;51.796;10.956;2024-02-28T07:20:06;21.70;38.80
67899;DHT22;54699;51.796;10.956;2024-02-28T07:22:34;21.80;38.80
67899;DHT22;54699;51.796;10.956;2024-02-28T07:25:01;21.80;38.70
67899;DHT22;54699;51.796;10.956;2024-02-28T07:27:29;21.80;38.70
67899;DHT22;54699;51.796;10.956;2024-02-28T07:29:56;21.90;38.60
67899;DHT22;54699;51.796;10.956;2024-02-28T07:32:23;21.90;38.50
67899;DHT22;54699;51.796;10.956;2024-02-28T07:34:55;21.90;38.50
67899;DHT22;54699;51.796;10.956;2024-02-28T07:37:22;21.80;38.50
67899;DHT22;54699;51.796;10.956;2024-02-28T07:39:49;21.50;38.50
67899;DHT22;54699;51.796;10.956;2024-02-28T07:42:16;21.50;39.00
67899;DHT22;54699;51.796;10.956;2024-02-28T07:44:43;21.40;39.20
67899;DHT22;54699;51.796;10.956;2024-02-28T07:47:10;21.40;39.20
67899;DHT22;54699;51.796;10.956;2024-02-28T07:49:39;21.40;39.20
67899;DHT22;54699;51.796;10.956;2024-02-28T07:52:08;21.40;39.30
67899;DHT22;54699;51.796;10.956;2024-02-28T07:54:35;21.50;39.20
67899;DHT22;54699;51.796;10.956;2024-02-28T07:57:03;21.60;38.90
67899;DHT22;54699;51.796;10.956;2024-02-28T07:59:30;21.70;38.80
67899;DHT22;54699;51.796;10.956;2024-02-28T08:01:57;21.60;38.80
67899;DHT22;54699;51.796;10.956;2024-02-28T08:04:24;21.50;38.80
67899;DHT22;54699;51.796;10.956;2024-02-28T08:06:51;21.60;38.80
67899;DHT22;54699;51.796;10.956;2024-02-28T08:09:20;21.60;38.70
67899;DHT22;54699;51.796;10.956;2024-02-28T08:11:47;21.70;38.40
67899;DHT22;54699;51.796;10.956;2024-02-28T08:14:14;21.70;38.50
67899;DHT22;54699;51.796;10.956;2024-02-28T08:16:44;21.80;38.60
67899;DHT22;54699;51.796;10.956;2024-02-28T08:19:12;21.70;38.50
67899;DHT22;54699;51.796;10.956;2024-02-28T08:21:39;21.70;38.50
67899;DHT22;54699;51.796;10.956;2024-02-28T08:24:08;21.70;38.70
67899;DHT22;54699;51.796;10.956;2024-02-28T08:26:37;21.60;38.60
67899;DHT22;54699;51.796;10.956;2024-02-28T08:29:04;21.60;38.60
67899;DHT22;54699;51.796;10.956;2024-02-28T08:31:31;21.60;38.70
67899;DHT22;54699;51.796;10.956;2024-02-28T08:33:58;21.80;38.70
67899;DHT22;54699;51.796;10.956;2024-02-28T08:36:29;21.90;38.40
67899;DHT22;54699;51.796;10.956;2024-02-28T08:38:55;21.80;38.60
67899;DHT22;54699;51.796;10.956;2024-02-28T08:41:27;21.70;38.80
67899;DHT22;54699;51.796;10.956;2024-02-28T08:43:57;21.80;40.70
67899;DHT22;54699;51.796;10.956;2024-02-28T08:46:25;21.80;40.50
67899;DHT22;54699;51.796;10.956;2024-02-28T08:48:59;21.80;40.20
67899;DHT22;54699;51.796;10.956;2024-02-28T08:51:28;21.80;41.00
67899;DHT22;54699;51.796;10.956;2024-02-28T08:53:58;22.00;41.00
67899;DHT22;54699;51.796;10.956;2024-02-28T08:56:26;22.00;40.80
67899;DHT22;54699;51.796;10.956;2024-02-28T08:58:53;22.10;41.20
67899;DHT22;54699;51.796;10.956;2024-02-28T09:01:22;22.10;41.40
67899;DHT22;54699;51.796;10.956;2024-02-28T09:03:50;22.20;41.10
67899;DHT22;54699;51.796;10.956;2024-02-28T09:06:17;22.20;39.60
67899;DHT22;54699;51.796;10.956;2024-02-28T09:08:44;22.10;38.90
67899;DHT22;54699;51.796;10.956;2024-02-28T09:11:12;22.20;37.90
67899;DHT22;54699;51.796;10.956;2024-02-28T09:13:42;22.30;39.00
67899;DHT22;54699;51.796;10.956;2024-02-28T09:16:09;22.40;39.20
67899;DHT22;54699;51.796;10.956;2024-02-28T09:18:37;22.30;38.70
67899;DHT22;54699;51.796;10.956;2024-02-28T09:21:04;22.20;38.70
67899;DHT22;54699;51.796;10.956;2024-02-28T09:23:34;22.30;38.80
67899;DHT22;54699;51.796;10.956;2024-02-28T09:26:02;22.30;38.70
67899;DHT22;54699;51.796;10.956;2024-02-28T09:28:33;22.20;38.90
67899;DHT22;54699;51.796;10.956;2024-02-28T09:31:00;22.20;38.70
67899;DHT22;54699;51.796;10.956;2024-02-28T09:33:27;22.20;38.90
67899;DHT22;54699;51.796;10.956;2024-02-28T09:35:56;22.20;38.80
67899;DHT22;54699;51.796;10.956;2024-02-28T09:38:23;22.20;38.90
67899;DHT22;54699;51.796;10.956;2024-02-28T09:40:50;22.10;39.00
67899;DHT22;54699;51.796;10.956;2024-02-28T09:43:19;22.10;39.40
67899;DHT22;54699;51.796;10.956;2024-02-28T09:45:54;22.20;38.60
67899;DHT22;54699;51.796;10.956;2024-02-28T09:48:24;22.30;38.70
67899;DHT22;54699;51.796;10.956;2024-02-28T09:50:59;22.30;38.20
67899;DHT22;54699;51.796;10.956;2024-02-28T09:53:27;22.40;38.00
67899;DHT22;54699;51.796;10.956;2024-02-28T09:55:54;22.40;38.00
67899;DHT22;54699;51.796;10.956;2024-02-28T09:58:22;22.50;38.10
67899;DHT22;54699;51.796;10.956;2024-02-28T10:01:02;22.60;37.90
67899;DHT22;54699;51.796;10.956;2024-02-28T10:03:30;22.60;38.00
67899;DHT22;54699;51.796;10.956;2024-02-28T10:06:00;22.60;37.60
67899;DHT22;54699;51.796;10.956;2024-02-28T10:08:27;22.70;37.90
67899;DHT22;54699;51.796;10.956;2024-02-28T10:10:57;22.70;37.80
67899;DHT22;54699;51.796;10.956;2024-02-28T10:13:27;22.70;36.40
67899;DHT22;54699;51.796;10.956;2024-02-28T10:15:55;22.80;36.30
67899;DHT22;54699;51.796;10.956;2024-02-28T10:18:25;22.90;36.20
67899;DHT22;54699;51.796;10.956;2024-02-28T10:20:55;23.00;36.70
67899;DHT22;54699;51.796;10.956;2024-02-28T10:23:24;23.10;36.90
67899;DHT22;54699;51.796;10.956;2024-02-28T10:25:53;23.10;36.10
67899;DHT22;54699;51.796;10.956;2024-02-28T10:28:21;23.10;37.40
67899;DHT22;54699;51.796;10.956;2024-02-28T10:30:49;23.10;36.50
67899;DHT22;54699;51.796;10.956;2024-02-28T10:33:19;23.20;35.50
67899;DHT22;54699;51.796;10.956;2024-02-28T10:35:51;23.20;35.50
67899;DHT22;54699;51.796;10.956;2024-02-28T10:38:20;23.30;36.40
67899;DHT22;54699;51.796;10.956;2024-02-28T10:40:49;23.60;36.20
67899;DHT22;54699;51.796;10.956;2024-02-28T10:43:18;23.60;36.30
67899;DHT22;54699;51.796;10.956;2024-02-28T10:45:47;23.70;36.70
67899;DHT22;54699;51.796;10.956;2024-02-28T10:48:16;23.70;37.30
67899;DHT22;54699;51.796;10.956;2024-02-28T10:50:44;23.80;37.10
67899;DHT22;54699;51.796;10.956;2024-02-28T10:53:13;23.70;37.40
67899;DHT22;54699;51.796;10.956;2024-02-28T10:55:42;23.70;37.40
67899;DHT22;54699;51.796;10.956;2024-02-28T10:58:12;23.80;37.70
67899;DHT22;54699;51.796;10.956;2024-02-28T11:00:41;23.80;37.40
67899;DHT22;54699;51.796;10.956;2024-02-28T11:03:11;23.80;38.00
67899;DHT22;54699;51.796;10.956;2024-02-28T11:05:43;23.80;37.90
67899;DHT22;54699;51.796;10.956;2024-02-28T11:08:21;23.90;37.70
67899;DHT22;54699;51.796;10.956;2024-02-28T11:10:54;23.90;36.90
67899;DHT22;54699;51.796;10.956;2024-02-28T11:13:23;23.70;37.20
67899;DHT22;54699;51.796;10.956;2024-02-28T11:15:51;24.00;36.20
67899;DHT22;54699;51.796;10.956;2024-02-28T11:18:18;24.10;35.40
67899;DHT22;54699;51.796;10.956;2024-02-28T11:20:48;24.10;35.40
67899;DHT22;54699;51.796;10.956;2024-02-28T11:23:17;24.20;35.20
67899;DHT22;54699;51.796;10.956;2024-02-28T11:25:44;24.30;35.00
67899;DHT22;54699;51.796;10.956;2024-02-28T11:28:11;24.30;34.60
67899;DHT22;54699;51.796;10.956;2024-02-28T11:30:40;24.30;34.60
67899;DHT22;54699;51.796;10.956;2024-02-28T11:33:08;24.30;34.60
67899;DHT22;54699;51.796;10.956;2024-02-28T11:35:35;24.30;34.80
67899;DHT22;54699;51.796;10.956;2024-02-28T11:38:06;24.30;34.80
67899;DHT22;54699;51.796;10.956;2024-02-28T11:40:35;24.40;34.80
67899;DHT22;54699;51.796;10.956;2024-02-28T11:43:02;24.40;34.80
67899;DHT22;54699;51.796;10.956;2024-02-28T11:45:31;24.40;34.70
67899;DHT22;54699;51.796;10.956;2024-02-28T11:48:09;24.30;34.70
67899;DHT22;54699;51.796;10.956;2024-02-28T11:50:37;24.40;34.60
67899;DHT22;54699;51.796;10.956;2024-02-28T11:53:04;24.30;34.70
67899;DHT22;54699;51.796;10.956;2024-02-28T11:55:32;24.30;34.80
67899;DHT22;54699;51.796;10.956;2024-02-28T11:57:59;24.30;34.90
67899;DHT22;54699;51.796;10.956;2024-02-28T12:00:26;24.40;35.10
67899;DHT22;54699;51.796;10.956;2024-02-28T12:03:04;24.40;35.30
67899;DHT22;54699;51.796;10.956;2024-02-28T12:05:32;24.40;34.60
67899;DHT22;54699;51.796;10.956;2024-02-28T12:07:59;24.40;34.90
67899;DHT22;54699;51.796;10.956;2024-02-28T12:10:27;24.40;34.70
67899;DHT22;54699;51.796;10.956;2024-02-28T12:12:58;24.40;35.10
67899;DHT22;54699;51.796;10.956;2024-02-28T12:15:25;24.50;34.60
67899;DHT22;54699;51.796;10.956;2024-02-28T12:17:55;24.50;35.20
67899;DHT22;54699;51.796;10.956;2024-02-28T12:20:24;24.40;36.50
67899;DHT22;54699;51.796;10.956;2024-02-28T12:22:51;24.40;35.20
67899;DHT22;54699;51.796;10.956;2024-02-28T12:25:19;24.50;35.20
67899;DHT22;54699;51.796;10.956;2024-02-28T12:27:46;24.50;35.50
67899;DHT22;54699;51.796;10.956;2024-02-28T12:30:13;24.50;35.40
67899;DHT22;54699;51.796;10.956;2024-02-28T12:32:40;24.50;35.30
67899;DHT22;54699;51.796;10.956;2024-02-28T12:35:08;24.50;34.20
67899;DHT22;54699;51.796;10.956;2024-02-28T12:37:37;24.50;34.20
67899;DHT22;54699;51.796;10.956;2024-02-28T12:40:05;24.60;33.50
67899;DHT22;54699;51.796;10.956;2024-02-28T12:42:33;24.50;33.70
67899;DHT22;54699;51.796;10.956;2024-02-28T12:45:01;24.50;33.10
67899;DHT22;54699;51.796;10.956;2024-02-28T12:47:29;24.50;35.00
67899;DHT22;54699;51.796;10.956;2024-02-28T12:49:57;24.50;34.90
67899;DHT22;54699;51.796;10.956;2024-02-28T12:52:24;24.50;34.10
67899;DHT22;54699;51.796;10.956;2024-02-28T12:54:53;24.50;34.80
67899;DHT22;54699;51.796;10.956;2024-02-28T12:57:19;24.60;34.30
67899;DHT22;54699;51.796;10.956;2024-02-28T12:59:46;24.60;33.70
67899;DHT22;54699;51.796;10.956;2024-02-28T13:02:16;24.60;32.80
67899;DHT22;54699;51.796;10.956;2024-02-28T13:04:45;24.60;33.60
67899;DHT22;54699;51.796;10.956;2024-02-28T13:07:12;24.60;33.60
67899;DHT22;54699;51.796;10.956;2024-02-28T13:09:39;24.70;33.70
67899;DHT22;54699;51.796;10.956;2024-02-28T13:12:07;24.60;34.00
67899;DHT22;54699;51.796;10.956;2024-02-28T13:14:35;24.70;34.40
67899;DHT22;54699;51.796;10.956;2024-02-28T13:17:02;24.70;35.20
67899;DHT22;54699;51.796;10.956;2024-02-28T13:19:30;24.70;34.40
67899;DHT22;54699;51.796;10.956;2024-02-28T13:21:58;24.60;34.40
67899;DHT22;54699;51.796;10.956;2024-02-28T13:24:25;24.70;34.50
67899;DHT22;54699;51.796;10.956;2024-02-28T13:26:52;24.70;34.40
67899;DHT22;54699;51.796;10.956;2024-02-28T13:29:21;24.70;34.20
67899;DHT22;54699;51.796;10.956;2024-02-28T13:31:48;24.70;32.40
67899;DHT22;54699;51.796;10.956;2024-02-28T13:34:15;24.70;32.50
67899;DHT22;54699;51.796;10.956;2024-02-28T13:36:42;24.70;33.30
67899;DHT22;54699;51.796;10.956;2024-02-28T13:39:09;24.70;33.10
67899;DHT22;54699;51.796;10.956;2024-02-28T13:41:36;24.80;32.90
67899;DHT22;54699;51.796;10.956;2024-02-28T13:44:03;24.70;33.00
67899;DHT22;54699;51.796;10.956;2024-02-28T13:46:32;24.90;32.80
67899;DHT22;54699;51.796;10.956;2024-02-28T13:48:58;24.80;31.80
67899;DHT22;54699;51.796;10.956;2024-02-28T13:51:25;24.80;32.60
67899;DHT22;54699;51.796;10.956;2024-02-28T13:53:53;24.80;32.90
67899;DHT22;54699;51.796;10.956;2024-02-28T13:56:20;24.80;33.90
67899;DHT22;54699;51.796;10.956;2024-02-28T13:58:47;24.70;34.30
67899;DHT22;54699;51.796;10.956;2024-02-28T14:01:14;24.80;31.80
67899;DHT22;54699;51.796;10.956;2024-02-28T14:03:42;24.80;33.40
67899;DHT22;54699;51.796;10.956;2024-02-28T14:06:09;24.80;32.60
67899;DHT22;54699;51.796;10.956;2024-02-28T14:08:36;24.80;32.80
67899;DHT22;54699;51.796;10.956;2024-02-28T14:11:03;24.70;33.50
67899;DHT22;54699;51.796;10.956;2024-02-28T14:13:30;24.90;31.90
67899;DHT22;54699;51.796;10.956;2024-02-28T14:15:57;24.90;33.10
67899;DHT22;54699;51.796;10.956;2024-02-28T14:18:24;24.80;33.20
67899;DHT22;54699;51.796;10.956;2024-02-28T14:20:52;24.90;33.00
67899;DHT22;54699;51.796;10.956;2024-02-28T14:23:19;24.90;32.70
67899;DHT22;54699;51.796;10.956;2024-02-28T14:25:46;24.90;32.50
67899;DHT22;54699;51.796;10.956;2024-02-28T14:28:13;24.90;31.60
67899;DHT22;54699;51.796;10.956;2024-02-28T14:30:40;24.90;31.80
67899;DHT22;54699;51.796;10.956;2024-02-28T14:33:10;24.80;32.10
67899;DHT22;54699;51.796;10.956;2024-02-28T14:35:37;24.90;31.70
67899;DHT22;54699;51.796;10.956;2024-02-28T14:38:06;24.80;32.20
67899;DHT22;54699;51.796;10.956;2024-02-28T14:40:33;24.90;32.30
67899;DHT22;54699;51.796;10.956;2024-02-28T14:42:59;24.90;32.70
67899;DHT22;54699;51.796;10.956;2024-02-28T14:45:26;24.90;32.60
67899;DHT22;54699;51.796;10.956;2024-02-28T14:47:53;24.90;32.70
67899;DHT22;54699;51.796;10.956;2024-02-28T14:50:21;25.00;33.30
67899;DHT22;54699;51.796;10.956;2024-02-28T14:52:50;25.00;33.50
67899;DHT22;54699;51.796;10.956;2024-02-28T14:55:19;25.00;34.40
67899;DHT22;54699;51.796;10.956;2024-02-28T14:57:46;24.90;33.90
67899;DHT22;54699;51.796;10.956;2024-02-28T15:00:13;25.00;33.80
67899;DHT22;54699;51.796;10.956;2024-02-28T15:02:40;25.00;33.90
67899;DHT22;54699;51.796;10.956;2024-02-28T15:05:07;24.90;33.90
67899;DHT22;54699;51.796;10.956;2024-02-28T15:07:35;24.70;34.20
67899;DHT22;54699;51.796;10.956;2024-02-28T15:10:02;24.40;34.70
67899;DHT22;54699;51.796;10.956;2024-02-28T15:12:31;24.10;35.30
67899;DHT22;54699;51.796;10.956;2024-02-28T15:14:59;23.90;35.70
67899;DHT22;54699;51.796;10.956;2024-02-28T15:17:27;23.60;36.10
67899;DHT22;54699;51.796;10.956;2024-02-28T15:19:54;23.30;36.40